Time;durP1;ratioP1;P1;durP2;ratioP2;P2;SDS_P1;SDS_P2;PMS_P1;PMS_P2;Temp;Humidity;BMP_temperature;BMP_pressure;BME280_temperature;BME280_humidity;BME280_pressure;Samples;Min_cycle;Max_cycle;Signal;HPM_P1;HPM_P2
2022/03/03 00:00:36;;;;;;;14.13;10.97;;;2.00;67.30;;;;;;5033528;28;20470;-45
2022/03/03 00:03:02;;;;;;;17.63;12.07;;;2.10;67.50;;;;;;5018364;28;20542;-46
2022/03/03 00:05:29;;;;;;;13.73;10.03;;;2.00;67.50;;;;;;5020813;28;20501;-46
2022/03/03 00:07:56;;;;;;;16.90;11.73;;;2.00;67.50;;;;;;5020238;28;20488;-46
2022/03/03 00:10:23;;;;;;;17.40;11.00;;;2.00;67.50;;;;;;5017089;28;20460;-46
2022/03/03 00:12:50;;;;;;;16.73;11.30;;;2.00;67.60;;;;;;5023034;28;20522;-46
2022/03/03 00:15:17;;;;;;;17.10;12.70;;;2.00;67.60;;;;;;5018679;28;20479;-45
2022/03/03 00:17:43;;;;;;;16.20;11.07;;;2.00;67.70;;;;;;5016550;28;20466;-45
2022/03/03 00:20:10;;;;;;;18.73;11.67;;;2.00;67.70;;;;;;5017446;28;20469;-44
2022/03/03 00:22:37;;;;;;;13.90;10.80;;;2.00;67.80;;;;;;5015518;28;20544;-45
2022/03/03 00:25:05;;;;;;;17.27;11.17;;;2.00;67.80;;;;;;5019472;28;20512;-45
2022/03/03 00:27:32;;;;;;;16.00;10.80;;;1.90;68.00;;;;;;5013786;28;20496;-46
2022/03/03 00:29:58;;;;;;;16.53;11.67;;;1.90;68.00;;;;;;5018341;28;20484;-46
2022/03/03 00:32:25;;;;;;;13.60;10.80;;;1.80;68.00;;;;;;5000495;28;20806;-46
2022/03/03 00:34:53;;;;;;;14.13;10.97;;;1.80;68.10;;;;;;5014348;28;20452;-46
2022/03/03 00:37:19;;;;;;;14.80;10.07;;;1.80;68.20;;;;;;5016877;28;20855;-46
2022/03/03 00:39:46;;;;;;;16.23;10.90;;;1.90;68.30;;;;;;5018398;28;20562;-46
2022/03/03 00:42:13;;;;;;;14.47;10.70;;;1.80;68.20;;;;;;5015463;28;20452;-46
2022/03/03 00:44:40;;;;;;;15.33;10.27;;;1.80;68.20;;;;;;5014393;28;20562;-46
2022/03/03 00:47:07;;;;;;;14.97;10.87;;;1.80;68.30;;;;;;5019686;28;20506;-46
2022/03/03 00:49:33;;;;;;;17.60;10.70;;;1.80;68.50;;;;;;5015757;28;20452;-45
2022/03/03 00:52:00;;;;;;;18.17;12.47;;;1.80;68.30;;;;;;5007761;28;20437;-45
2022/03/03 00:54:27;;;;;;;17.47;12.07;;;1.80;68.40;;;;;;5000774;28;21009;-45
2022/03/03 00:56:54;;;;;;;14.07;10.40;;;1.80;68.40;;;;;;5018979;28;20978;-45
2022/03/03 00:59:21;;;;;;;15.90;11.67;;;1.80;68.40;;;;;;5016396;28;21040;-45
2022/03/03 01:01:48;;;;;;;15.60;11.30;;;1.70;68.50;;;;;;5013711;28;20819;-45
2022/03/03 01:04:15;;;;;;;15.47;10.47;;;1.80;68.70;;;;;;5014095;28;20448;-45
2022/03/03 01:06:41;;;;;;;14.83;10.83;;;1.80;68.60;;;;;;5015431;28;20903;-45
2022/03/03 01:09:08;;;;;;;16.67;11.97;;;1.80;68.70;;;;;;5022012;28;20546;-45
2022/03/03 01:11:35;;;;;;;19.20;10.70;;;1.80;68.60;;;;;;5018416;28;20790;-45
2022/03/03 01:14:02;;;;;;;14.30;11.30;;;1.70;68.50;;;;;;5016446;28;20456;-45
2022/03/03 01:16:29;;;;;;;14.97;10.90;;;1.70;68.60;;;;;;5017620;28;20448;-45
2022/03/03 01:18:56;;;;;;;20.90;12.13;;;1.70;68.70;;;;;;5013325;28;20612;-45
2022/03/03 01:21:22;;;;;;;15.87;11.47;;;1.60;68.80;;;;;;5015721;28;20475;-45
2022/03/03 01:23:49;;;;;;;16.60;12.20;;;1.60;68.90;;;;;;5019111;28;20464;-45
2022/03/03 01:26:16;;;;;;;16.10;10.30;;;1.60;68.90;;;;;;5022112;28;20454;-45
2022/03/03 01:28:43;;;;;;;17.80;11.63;;;1.60;69.10;;;;;;5021133;28;20578;-45
2022/03/03 01:31:10;;;;;;;19.40;11.50;;;1.60;69.30;;;;;;5023620;28;20850;-45
2022/03/03 01:33:36;;;;;;;19.50;12.17;;;1.60;69.30;;;;;;5000898;28;20456;-45
2022/03/03 01:36:03;;;;;;;18.67;12.77;;;1.60;69.40;;;;;;5017895;28;20759;-45
2022/03/03 01:38:30;;;;;;;14.20;11.47;;;1.60;69.40;;;;;;5022142;28;20540;-45
2022/03/03 01:40:57;;;;;;;21.50;12.07;;;1.50;69.30;;;;;;5036042;28;20460;-45
2022/03/03 01:43:24;;;;;;;14.17;11.07;;;1.50;69.20;;;;;;5021561;28;20464;-45
2022/03/03 01:45:51;;;;;;;18.40;10.70;;;1.50;69.40;;;;;;5019657;28;20856;-45
2022/03/03 01:48:18;;;;;;;21.10;11.50;;;1.50;69.40;;;;;;5017701;28;20919;-45
2022/03/03 01:50:45;;;;;;;16.60;11.70;;;1.50;69.60;;;;;;5024509;28;20969;-45
2022/03/03 01:53:12;;;;;;;15.40;11.17;;;1.50;69.70;;;;;;5009009;28;20558;-45
2022/03/03 01:55:39;;;;;;;16.80;10.40;;;1.50;69.60;;;;;;5019575;28;20456;-45
2022/03/03 01:58:05;;;;;;;15.90;11.80;;;1.50;69.60;;;;;;5024348;28;20474;-45
2022/03/03 02:00:32;;;;;;;15.73;11.00;;;1.50;69.60;;;;;;5008224;28;20471;-45
2022/03/03 02:03:00;;;;;;;18.60;11.27;;;1.40;69.60;;;;;;5018390;28;20510;-45
2022/03/03 02:05:30;;;;;;;16.10;11.30;;;1.50;69.60;;;;;;5019355;28;20451;-45
2022/03/03 02:07:57;;;;;;;16.63;11.87;;;1.50;69.60;;;;;;5016880;28;20575;-45
2022/03/03 02:10:24;;;;;;;17.20;12.03;;;1.50;69.50;;;;;;5016428;28;20535;-45
2022/03/03 02:12:51;;;;;;;14.87;10.97;;;1.50;69.50;;;;;;5022380;28;20500;-45
2022/03/03 02:15:20;;;;;;;18.30;12.00;;;1.40;69.60;;;;;;5008689;28;20767;-45
2022/03/03 02:17:47;;;;;;;16.60;10.93;;;1.40;69.80;;;;;;5001941;28;20470;-45
2022/03/03 02:20:24;;;;;;;18.17;11.13;;;1.40;69.90;;;;;;5038018;28;20462;-45
2022/03/03 02:22:53;;;;;;;13.30;9.30;;;1.40;69.80;;;;;;5021101;28;20445;-45
2022/03/03 02:25:20;;;;;;;18.03;11.57;;;1.30;69.90;;;;;;5014993;28;20543;-45
2022/03/03 02:27:47;;;;;;;13.00;10.30;;;1.30;69.90;;;;;;5018626;28;21023;-45
2022/03/03 02:30:18;;;;;;;19.10;11.67;;;1.30;70.30;;;;;;5022099;28;20590;-45
2022/03/03 02:32:45;;;;;;;15.63;11.07;;;1.40;70.30;;;;;;5016990;28;20566;-45
2022/03/03 02:35:12;;;;;;;13.33;10.60;;;1.30;69.90;;;;;;5020400;28;20458;-45
2022/03/03 02:37:44;;;;;;;18.10;11.60;;;1.30;70.00;;;;;;5020230;28;20582;-45
2022/03/03 02:40:19;;;;;;;18.00;11.80;;;1.30;70.00;;;;;;5017815;28;20479;-45
2022/03/03 02:42:53;;;;;;;20.73;11.20;;;1.30;70.30;;;;;;5006834;28;20550;-45
2022/03/03 02:45:21;;;;;;;15.33;10.80;;;1.30;70.30;;;;;;5020112;28;20490;-45
2022/03/03 02:47:49;;;;;;;21.10;10.90;;;1.30;70.30;;;;;;5020470;28;20488;-45
2022/03/03 02:50:18;;;;;;;17.50;11.60;;;1.20;70.40;;;;;;5017563;28;20464;-45
2022/03/03 02:52:45;;;;;;;15.30;10.53;;;1.20;70.40;;;;;;5033633;28;21059;-45
2022/03/03 02:55:12;;;;;;;17.47;11.73;;;1.20;70.40;;;;;;5032693;28;21035;-45
2022/03/03 02:57:54;;;;;;;16.60;11.10;;;1.10;70.60;;;;;;5021810;28;20509;-45
2022/03/03 03:00:24;;;;;;;13.60;10.53;;;1.10;70.70;;;;;;5017507;28;20494;-45
2022/03/03 03:02:50;;;;;;;16.43;11.40;;;1.10;70.80;;;;;;5034614;28;20563;-45
2022/03/03 03:05:18;;;;;;;15.57;12.20;;;1.10;70.90;;;;;;5015851;28;20459;-45
2022/03/03 03:07:45;;;;;;;15.90;11.27;;;1.10;70.80;;;;;;5017826;28;20487;-45
2022/03/03 03:10:12;;;;;;;14.50;11.73;;;1.10;70.90;;;;;;5017161;28;20455;-45
2022/03/03 03:12:39;;;;;;;21.67;12.23;;;1.10;70.80;;;;;;5016543;28;20460;-45
2022/03/03 03:15:06;;;;;;;17.20;12.23;;;1.00;70.80;;;;;;5015839;28;20864;-45
2022/03/03 03:17:33;;;;;;;18.30;11.57;;;1.00;70.90;;;;;;5021172;28;20466;-45
2022/03/03 03:20:00;;;;;;;15.90;11.57;;;1.10;71.10;;;;;;5018107;28;20460;-45
2022/03/03 03:22:27;;;;;;;17.17;11.73;;;1.20;70.80;;;;;;5020497;28;20536;-45
2022/03/03 03:24:53;;;;;;;17.40;11.53;;;1.20;70.90;;;;;;5016473;28;21011;-45
2022/03/03 03:27:20;;;;;;;19.23;12.03;;;1.10;70.80;;;;;;5012598;28;20525;-45
2022/03/03 03:29:48;;;;;;;20.17;11.83;;;1.00;71.00;;;;;;5018754;28;20454;-45
2022/03/03 03:32:14;;;;;;;15.37;11.40;;;1.00;71.10;;;;;;5021449;28;21042;-45
2022/03/03 03:34:41;;;;;;;18.90;12.17;;;1.00;71.30;;;;;;5023617;28;20460;-46
2022/03/03 03:37:09;;;;;;;17.93;11.67;;;1.00;71.30;;;;;;5021916;28;20520;-49
2022/03/03 03:39:37;;;;;;;14.93;11.70;;;1.00;71.40;;;;;;5023937;28;20884;-49
2022/03/03 03:42:04;;;;;;;18.80;11.83;;;1.00;71.30;;;;;;5022994;28;20547;-49
2022/03/03 03:44:31;;;;;;;20.93;11.03;;;1.00;71.40;;;;;;5010015;28;20451;-45
2022/03/03 03:46:58;;;;;;;18.23;11.77;;;0.90;71.50;;;;;;5004286;28;20820;-45
2022/03/03 03:49:25;;;;;;;16.80;11.50;;;0.90;71.40;;;;;;5015446;28;20496;-45
2022/03/03 03:51:51;;;;;;;18.67;12.37;;;0.90;71.60;;;;;;5016515;28;20820;-45
2022/03/03 03:54:18;;;;;;;23.13;12.60;;;1.00;71.70;;;;;;4998638;28;20838;-45
2022/03/03 03:56:45;;;;;;;18.93;12.57;;;0.90;71.60;;;;;;5018672;28;20871;-45
2022/03/03 03:59:12;;;;;;;17.10;12.73;;;0.90;71.60;;;;;;5016706;28;20475;-45
2022/03/03 04:01:38;;;;;;;17.90;12.33;;;0.80;71.60;;;;;;5016107;28;20999;-45
2022/03/03 04:04:05;;;;;;;21.87;13.80;;;0.80;71.70;;;;;;5014237;28;20631;-45
2022/03/03 04:06:32;;;;;;;19.63;13.60;;;0.80;71.70;;;;;;5016751;28;20505;-45
2022/03/03 04:08:59;;;;;;;21.43;13.63;;;0.80;71.70;;;;;;5020007;28;20487;-45
2022/03/03 04:11:26;;;;;;;19.53;12.93;;;0.80;71.80;;;;;;5019528;28;20483;-45
2022/03/03 04:13:54;;;;;;;20.17;11.70;;;0.70;71.90;;;;;;5012779;28;20949;-45
2022/03/03 04:16:20;;;;;;;14.67;10.93;;;0.70;71.90;;;;;;5016044;28;20457;-45
2022/03/03 04:18:47;;;;;;;14.93;11.80;;;0.70;72.00;;;;;;5017125;28;20459;-45
2022/03/03 04:21:14;;;;;;;18.00;12.30;;;0.70;72.10;;;;;;5015374;28;20464;-45
2022/03/03 04:23:41;;;;;;;18.73;13.00;;;0.70;72.00;;;;;;5018197;28;20494;-45
2022/03/03 04:26:09;;;;;;;18.23;12.23;;;0.70;72.00;;;;;;5015401;28;20455;-45
2022/03/03 04:28:36;;;;;;;19.40;11.40;;;0.80;72.20;;;;;;5018149;28;20490;-45
2022/03/03 04:31:03;;;;;;;23.40;12.67;;;0.80;72.20;;;;;;5016768;28;20451;-45
2022/03/03 04:33:30;;;;;;;16.60;12.20;;;0.80;72.10;;;;;;5017179;28;21030;-45
2022/03/03 04:35:57;;;;;;;13.03;10.43;;;0.70;72.10;;;;;;5017408;28;21241;-45
2022/03/03 04:38:25;;;;;;;20.87;12.47;;;0.70;72.10;;;;;;5018036;28;20451;-45
2022/03/03 04:40:52;;;;;;;21.40;11.87;;;0.70;72.30;;;;;;4989230;28;20451;-45
2022/03/03 04:43:19;;;;;;;17.47;11.40;;;0.70;72.20;;;;;;5018568;28;20448;-45
2022/03/03 04:45:45;;;;;;;17.10;11.70;;;0.60;72.20;;;;;;5016579;28;20451;-45
2022/03/03 04:48:12;;;;;;;15.70;10.67;;;0.60;72.20;;;;;;5020473;28;21029;-45
2022/03/03 04:50:39;;;;;;;16.63;12.10;;;0.60;72.30;;;;;;5019629;28;20949;-45
2022/03/03 04:53:06;;;;;;;17.53;11.87;;;0.60;72.30;;;;;;5019639;28;20454;-45
2022/03/03 04:55:33;;;;;;;16.60;10.80;;;0.70;72.30;;;;;;5015621;28;20471;-45
2022/03/03 04:58:04;;;;;;;16.30;11.53;;;0.70;72.20;;;;;;5021155;28;20444;-45
2022/03/03 05:00:30;;;;;;;21.43;12.07;;;0.60;72.20;;;;;;5021581;28;20546;-45
2022/03/03 05:02:57;;;;;;;25.07;12.40;;;0.70;72.40;;;;;;5020399;28;20569;-45
2022/03/03 05:05:25;;;;;;;25.30;13.13;;;0.60;72.20;;;;;;5003522;28;20458;-45
2022/03/03 05:07:51;;;;;;;14.73;11.30;;;0.60;72.20;;;;;;5018773;28;20947;-45
2022/03/03 05:10:18;;;;;;;19.83;11.93;;;0.60;72.40;;;;;;5036861;28;20463;-45
2022/03/03 05:12:45;;;;;;;16.70;11.87;;;0.70;72.40;;;;;;5024342;28;20456;-45
2022/03/03 05:15:11;;;;;;;18.53;12.00;;;0.60;72.40;;;;;;5020559;28;20461;-45
2022/03/03 05:17:38;;;;;;;24.17;12.90;;;0.50;72.60;;;;;;5018788;28;20534;-45
2022/03/03 05:20:05;;;;;;;20.20;12.93;;;0.50;72.70;;;;;;5022350;28;20977;-45
2022/03/03 05:22:32;;;;;;;16.30;11.77;;;0.50;72.80;;;;;;5022137;28;20456;-45
2022/03/03 05:24:59;;;;;;;18.13;12.00;;;0.50;72.90;;;;;;5023266;28;20460;-45
2022/03/03 05:27:26;;;;;;;16.80;11.40;;;0.50;72.80;;;;;;5020700;28;20462;-45
2022/03/03 05:29:54;;;;;;;16.83;12.70;;;0.50;73.00;;;;;;5022036;28;20491;-45
2022/03/03 05:32:21;;;;;;;18.87;12.33;;;0.50;72.90;;;;;;5023549;28;20468;-45
2022/03/03 05:34:47;;;;;;;20.03;12.80;;;0.50;72.90;;;;;;5005975;28;20867;-45
2022/03/03 05:37:20;;;;;;;17.87;11.80;;;0.40;73.00;;;;;;5018407;28;20546;-45
2022/03/03 05:39:47;;;;;;;20.27;12.67;;;0.40;73.00;;;;;;5019266;28;20830;-45
2022/03/03 05:42:14;;;;;;;17.53;12.07;;;0.40;73.10;;;;;;5004215;28;20451;-45
2022/03/03 05:44:42;;;;;;;17.57;12.17;;;0.40;73.30;;;;;;5020523;28;20976;-45
2022/03/03 05:47:12;;;;;;;17.87;11.93;;;0.40;73.20;;;;;;5020817;28;20487;-45
2022/03/03 05:49:40;;;;;;;18.03;12.90;;;0.40;73.20;;;;;;5021017;28;20484;-45
2022/03/03 05:52:09;;;;;;;21.07;11.37;;;0.40;73.20;;;;;;5019443;28;20439;-45
2022/03/03 05:54:37;;;;;;;20.07;11.47;;;0.40;73.30;;;;;;5004147;28;20534;-45
2022/03/03 05:57:10;;;;;;;22.43;11.80;;;0.40;73.20;;;;;;5020912;28;20456;-45
2022/03/03 05:59:40;;;;;;;18.33;11.80;;;0.40;73.30;;;;;;5008076;28;20972;-45
2022/03/03 06:02:08;;;;;;;20.20;12.57;;;0.40;73.30;;;;;;5004006;28;21189;-45
2022/03/03 06:04:39;;;;;;;15.67;12.27;;;0.40;73.20;;;;;;5020125;28;20551;-45
2022/03/03 06:07:08;;;;;;;17.10;11.27;;;0.40;73.30;;;;;;5018787;28;20465;-45
2022/03/03 06:09:36;;;;;;;19.83;13.60;;;0.30;73.40;;;;;;5013563;28;20578;-45
2022/03/03 06:12:15;;;;;;;17.30;12.10;;;0.40;73.50;;;;;;5018009;28;20797;-45
2022/03/03 06:14:50;;;;;;;17.37;12.13;;;0.40;73.30;;;;;;5035597;28;20456;-45
2022/03/03 06:17:19;;;;;;;14.00;11.70;;;0.40;73.40;;;;;;5011930;28;20526;-45
2022/03/03 06:19:52;;;;;;;18.73;11.57;;;0.40;73.50;;;;;;5019126;28;20812;-45
2022/03/03 06:22:19;;;;;;;17.93;11.87;;;0.40;73.60;;;;;;5021742;28;20475;-45
2022/03/03 06:24:47;;;;;;;18.00;13.00;;;0.30;73.60;;;;;;5019502;28;20467;-45
2022/03/03 06:27:15;;;;;;;21.67;12.77;;;0.30;73.60;;;;;;5021733;28;20473;-45
2022/03/03 06:29:42;;;;;;;16.20;12.20;;;0.30;73.60;;;;;;5005205;28;20572;-45
2022/03/03 06:32:11;;;;;;;15.13;11.10;;;0.40;73.70;;;;;;5023660;28;20831;-45
2022/03/03 06:34:38;;;;;;;15.87;11.97;;;0.30;73.60;;;;;;5020897;28;20832;-45
2022/03/03 06:37:05;;;;;;;16.47;11.00;;;0.40;73.70;;;;;;5019879;28;20460;-45
2022/03/03 06:39:32;;;;;;;16.87;11.97;;;0.40;73.50;;;;;;5010748;28;20464;-45
2022/03/03 06:41:59;;;;;;;18.50;12.33;;;0.40;73.60;;;;;;5018386;28;20467;-45
2022/03/03 06:44:26;;;;;;;19.30;12.27;;;0.40;73.70;;;;;;5016433;28;20459;-45
2022/03/03 06:46:54;;;;;;;21.50;13.27;;;0.40;73.60;;;;;;5022000;28;20476;-45
2022/03/03 06:49:22;;;;;;;20.27;12.43;;;0.40;73.80;;;;;;5018317;28;20479;-45
2022/03/03 06:51:53;;;;;;;19.17;13.53;;;0.40;73.90;;;;;;5021635;28;20452;-45
2022/03/03 06:54:21;;;;;;;16.17;14.37;;;0.40;74.00;;;;;;5019709;28;20476;-45
2022/03/03 06:56:56;;;;;;;22.13;15.77;;;0.40;74.10;;;;;;5021520;28;20494;-45
2022/03/03 06:59:30;;;;;;;17.80;12.57;;;0.40;74.30;;;;;;5018983;28;20465;-45
2022/03/03 07:01:59;;;;;;;17.57;12.80;;;0.50;74.30;;;;;;5017340;28;20888;-45
2022/03/03 07:04:28;;;;;;;19.90;14.00;;;0.50;74.50;;;;;;4995758;28;20783;-45
2022/03/03 07:06:55;;;;;;;18.77;13.50;;;0.60;74.50;;;;;;5017007;28;20459;-45
2022/03/03 07:09:22;;;;;;;20.13;13.43;;;0.60;74.30;;;;;;5019266;28;20568;-45
2022/03/03 07:11:49;;;;;;;20.50;13.50;;;0.60;74.50;;;;;;5020491;28;20499;-45
2022/03/03 07:14:18;;;;;;;21.07;15.60;;;0.60;74.50;;;;;;5010385;28;20560;-45
2022/03/03 07:16:45;;;;;;;23.00;13.47;;;0.70;74.40;;;;;;5020922;28;20468;-45
2022/03/03 07:19:37;;;;;;;23.20;14.37;;;0.70;74.40;;;;;;5019213;28;20510;-45
2022/03/03 07:22:07;;;;;;;17.83;12.90;;;0.70;74.30;;;;;;5021436;28;21083;-45
2022/03/03 07:24:58;;;;;;;21.80;13.10;;;0.70;74.50;;;;;;5016599;28;20460;-45
2022/03/03 07:27:26;;;;;;;18.13;12.73;;;0.70;74.60;;;;;;5020325;28;20464;-44
2022/03/03 07:29:58;;;;;;;22.27;14.27;;;0.80;74.50;;;;;;5018052;28;20496;-45
2022/03/03 07:32:33;;;;;;;15.03;12.87;;;0.80;74.60;;;;;;5020092;28;20451;-45
2022/03/03 07:35:05;;;;;;;22.73;13.73;;;0.80;74.70;;;;;;5022394;28;20459;-46
2022/03/03 07:37:42;;;;;;;19.80;12.87;;;0.90;74.60;;;;;;5021112;28;20489;-46
2022/03/03 07:40:10;;;;;;;18.20;12.90;;;1.00;74.50;;;;;;5016127;28;21015;-46
2022/03/03 07:42:37;;;;;;;20.63;12.67;;;1.10;73.90;;;;;;5019433;28;20474;-46
2022/03/03 07:45:07;;;;;;;20.60;12.53;;;1.20;73.40;;;;;;5019018;28;21034;-46
2022/03/03 07:47:35;;;;;;;22.20;13.90;;;1.30;73.00;;;;;;5008447;28;20480;-46
2022/03/03 07:50:03;;;;;;;17.93;11.80;;;1.40;72.70;;;;;;5016788;28;20488;-45
2022/03/03 07:52:32;;;;;;;22.37;14.17;;;1.40;72.70;;;;;;5004137;28;20456;-46
2022/03/03 07:54:59;;;;;;;19.67;13.70;;;1.50;72.60;;;;;;5016734;28;20459;-46
2022/03/03 07:57:34;;;;;;;16.27;11.00;;;1.60;72.50;;;;;;5010479;28;20460;-45
2022/03/03 08:00:10;;;;;;;21.43;15.10;;;1.60;72.60;;;;;;5019662;28;20479;-46
2022/03/03 08:02:40;;;;;;;17.27;12.90;;;1.70;72.60;;;;;;5014109;28;20558;-45
2022/03/03 08:05:07;;;;;;;24.00;13.27;;;1.70;72.80;;;;;;5023313;28;20458;-45
2022/03/03 08:07:43;;;;;;;18.77;12.87;;;1.80;72.90;;;;;;5020052;28;21164;-45
2022/03/03 08:10:11;;;;;;;21.33;13.93;;;1.80;73.00;;;;;;5022020;28;20592;-46
2022/03/03 08:12:40;;;;;;;19.33;14.30;;;1.90;72.90;;;;;;5021020;28;20470;-45
2022/03/03 08:15:08;;;;;;;18.33;13.07;;;2.00;72.90;;;;;;5017532;28;20515;-46
2022/03/03 08:17:35;;;;;;;20.07;12.97;;;2.10;72.80;;;;;;5022273;28;20468;-46
2022/03/03 08:20:08;;;;;;;22.77;13.40;;;2.20;72.60;;;;;;5019512;28;20509;-46
2022/03/03 08:22:37;;;;;;;19.10;13.03;;;2.30;72.50;;;;;;5016370;28;20884;-46
2022/03/03 08:25:06;;;;;;;21.87;13.40;;;2.50;72.10;;;;;;5019599;28;20474;-45
2022/03/03 08:27:34;;;;;;;21.17;15.30;;;2.70;71.50;;;;;;5019815;28;20554;-46
2022/03/03 08:30:01;;;;;;;21.60;14.50;;;2.90;71.10;;;;;;5020817;28;20492;-46
2022/03/03 08:32:34;;;;;;;18.80;13.50;;;3.10;69.90;;;;;;5015535;28;20585;-45
2022/03/03 08:35:21;;;;;;;19.13;13.43;;;3.30;69.30;;;;;;5018176;28;20664;-46
2022/03/03 08:38:01;;;;;;;21.67;13.57;;;3.50;68.00;;;;;;5018547;28;21009;-46
2022/03/03 08:40:29;;;;;;;16.90;11.43;;;3.80;66.60;;;;;;5015829;28;20448;-46
2022/03/03 08:42:59;;;;;;;20.20;13.13;;;3.90;65.00;;;;;;5020364;28;20553;-46
2022/03/03 08:45:29;;;;;;;16.10;12.20;;;4.10;64.60;;;;;;5015983;28;20468;-46
2022/03/03 08:48:00;;;;;;;19.10;12.90;;;4.30;64.30;;;;;;5033259;28;21089;-47
2022/03/03 08:50:32;;;;;;;24.30;14.83;;;4.50;63.90;;;;;;5017595;28;20590;-46
2022/03/03 08:53:01;;;;;;;14.93;12.00;;;4.60;63.30;;;;;;5030246;28;20457;-46
2022/03/03 08:55:28;;;;;;;14.17;12.20;;;4.80;62.70;;;;;;5016700;28;20475;-46
2022/03/03 08:57:56;;;;;;;17.37;12.33;;;4.90;61.50;;;;;;5016860;28;20510;-47
2022/03/03 09:00:23;;;;;;;15.80;11.97;;;5.00;61.30;;;;;;5017127;28;20495;-46
2022/03/03 09:02:50;;;;;;;16.00;12.33;;;5.10;61.00;;;;;;5017655;28;20456;-45
2022/03/03 09:05:20;;;;;;;16.30;12.10;;;5.10;60.90;;;;;;5017112;28;21013;-47
2022/03/03 09:07:47;;;;;;;17.27;11.73;;;5.10;60.90;;;;;;5018074;28;20463;-46
2022/03/03 09:10:15;;;;;;;21.00;13.67;;;5.10;60.00;;;;;;5032965;28;20914;-46
2022/03/03 09:12:42;;;;;;;17.13;12.53;;;5.20;60.00;;;;;;5018364;28;20817;-46
2022/03/03 09:15:10;;;;;;;18.30;12.40;;;5.20;59.70;;;;;;5018945;28;20459;-46
2022/03/03 09:17:38;;;;;;;14.63;11.27;;;5.20;60.10;;;;;;5014039;28;20460;-46
2022/03/03 09:20:07;;;;;;;17.97;12.13;;;5.30;60.00;;;;;;5011026;28;20862;-46
2022/03/03 09:22:35;;;;;;;16.97;11.63;;;5.40;59.30;;;;;;5032134;28;20472;-46
2022/03/03 09:25:03;;;;;;;19.13;11.67;;;5.40;59.10;;;;;;5017043;28;20455;-46
2022/03/03 09:27:31;;;;;;;18.43;11.63;;;5.50;58.90;;;;;;5017467;28;20457;-46
2022/03/03 09:29:58;;;;;;;15.27;11.80;;;5.60;58.10;;;;;;5016070;28;20493;-46
2022/03/03 09:32:25;;;;;;;14.43;11.00;;;5.60;57.40;;;;;;5033479;28;20513;-46
2022/03/03 09:34:52;;;;;;;19.20;11.63;;;5.60;57.10;;;;;;5016676;28;20452;-46
2022/03/03 09:37:19;;;;;;;14.53;10.77;;;5.70;57.30;;;;;;5021145;28;20464;-46
2022/03/03 09:39:47;;;;;;;16.10;11.93;;;5.70;56.70;;;;;;5017310;28;20495;-46
2022/03/03 09:42:14;;;;;;;15.20;10.77;;;5.80;57.00;;;;;;5017350;28;20471;-46
2022/03/03 09:44:40;;;;;;;12.77;11.30;;;5.80;57.20;;;;;;5001828;28;20463;-45
2022/03/03 09:47:09;;;;;;;15.23;12.30;;;6.00;57.60;;;;;;5022484;28;20908;-45
2022/03/03 09:49:36;;;;;;;15.97;12.60;;;6.10;57.70;;;;;;5023090;28;20483;-45
2022/03/03 09:52:12;;;;;;;18.43;11.30;;;6.20;57.50;;;;;;5025733;28;20489;-45
2022/03/03 09:54:39;;;;;;;26.30;13.03;;;6.40;56.70;;;;;;5020807;28;20456;-45
2022/03/03 09:57:06;;;;;;;17.40;11.70;;;6.50;55.50;;;;;;5021176;28;20460;-45
2022/03/03 09:59:33;;;;;;;16.83;11.67;;;6.70;56.00;;;;;;5007296;28;21039;-46
2022/03/03 10:02:06;;;;;;;19.57;12.67;;;6.80;55.00;;;;;;5001291;28;21039;-45
2022/03/03 10:04:34;;;;;;;17.90;13.43;;;7.00;54.50;;;;;;5002631;28;21024;-45
2022/03/03 10:07:08;;;;;;;18.93;12.37;;;7.20;53.30;;;;;;5020877;28;20610;-45
2022/03/03 10:09:59;;;;;;;14.47;11.10;;;7.40;53.50;;;;;;5020237;28;20494;-46
2022/03/03 10:12:42;;;;;;;17.97;11.70;;;7.60;52.40;;;;;;5023397;28;20949;-45
2022/03/03 10:15:15;;;;;;;15.73;12.27;;;7.80;52.10;;;;;;5023723;28;20459;-45
2022/03/03 10:17:43;;;;;;;15.03;13.37;;;8.10;51.40;;;;;;5017779;28;20539;-46
2022/03/03 10:20:13;;;;;;;18.77;12.13;;;8.30;51.40;;;;;;5008475;28;20521;-46
2022/03/03 10:22:42;;;;;;;14.20;11.83;;;8.60;50.70;;;;;;5020699;28;20557;-46
2022/03/03 10:25:11;;;;;;;12.63;11.33;;;8.90;49.60;;;;;;5018897;28;20469;-46
2022/03/03 10:27:38;;;;;;;15.17;11.30;;;9.10;49.10;;;;;;5018148;28;20469;-46
2022/03/03 10:30:08;;;;;;;17.30;12.33;;;9.50;48.50;;;;;;5022279;28;20491;-46
2022/03/03 10:32:36;;;;;;;19.90;11.97;;;9.80;47.30;;;;;;5008696;28;20463;-46
2022/03/03 10:35:14;;;;;;;12.07;10.10;;;10.10;46.80;;;;;;5007167;28;20550;-47
2022/03/03 10:37:43;;;;;;;13.67;10.70;;;10.40;46.30;;;;;;5019139;28;20606;-46
2022/03/03 10:40:17;;;;;;;13.20;11.80;;;10.70;45.60;;;;;;5017469;28;21044;-47
2022/03/03 10:42:48;;;;;;;16.13;10.77;;;10.80;43.50;;;;;;5017255;28;22325;-46
2022/03/03 10:45:19;;;;;;;13.93;10.90;;;11.00;43.40;;;;;;5017893;28;20462;-46
2022/03/03 10:48:06;;;;;;;14.10;10.83;;;11.30;43.70;;;;;;5008734;28;20587;-46
2022/03/03 10:50:50;;;;;;;17.33;11.80;;;11.50;43.00;;;;;;5019678;28;21029;-47
2022/03/03 10:53:18;;;;;;;12.93;11.30;;;11.60;42.30;;;;;;5020734;28;20458;-47
2022/03/03 10:56:14;;;;;;;15.13;11.30;;;11.80;42.50;;;;;;5016564;28;20937;-47
2022/03/03 10:58:53;;;;;;;17.50;12.33;;;12.00;42.20;;;;;;5008170;28;20499;-47
2022/03/03 11:01:25;;;;;;;17.57;12.23;;;12.00;41.00;;;;;;5014486;28;20474;-47
2022/03/03 11:03:54;;;;;;;15.13;11.70;;;12.00;41.70;;;;;;5018605;28;20463;-47
2022/03/03 11:06:26;;;;;;;13.87;11.60;;;12.10;41.60;;;;;;5018729;28;20472;-47
2022/03/03 11:08:54;;;;;;;18.17;12.30;;;12.10;41.50;;;;;;5013943;28;20474;-47
2022/03/03 11:11:23;;;;;;;14.77;12.00;;;12.20;40.60;;;;;;5018889;28;21073;-47
2022/03/03 11:13:51;;;;;;;18.00;12.00;;;12.30;41.30;;;;;;5019883;28;20486;-47
2022/03/03 11:16:28;;;;;;;14.03;11.43;;;12.30;40.90;;;;;;5022601;28;20470;-47
2022/03/03 11:18:57;;;;;;;15.73;12.43;;;12.30;40.10;;;;;;5019595;28;20539;-47
2022/03/03 11:21:24;;;;;;;12.90;10.70;;;12.30;40.00;;;;;;5005843;28;20556;-47
2022/03/03 11:23:58;;;;;;;15.73;11.97;;;12.30;38.80;;;;;;5014593;28;20464;-47
2022/03/03 11:26:30;;;;;;;14.80;10.80;;;12.30;39.50;;;;;;5003422;28;20560;-47
2022/03/03 11:29:02;;;;;;;18.40;13.30;;;12.30;39.60;;;;;;5013034;28;20597;-47
2022/03/03 11:31:33;;;;;;;16.43;12.13;;;12.30;39.20;;;;;;5018588;28;20586;-46
2022/03/03 11:34:32;;;;;;;13.17;11.10;;;12.40;39.40;;;;;;5018596;28;20464;-47
2022/03/03 11:37:17;;;;;;;16.83;11.20;;;12.40;38.90;;;;;;5018885;28;20504;-46
2022/03/03 11:39:52;;;;;;;14.03;10.37;;;12.40;38.30;;;;;;5018920;28;20503;-46
2022/03/03 11:42:42;;;;;;;18.47;11.90;;;12.30;38.60;;;;;;5020575;28;20552;-46
2022/03/03 11:45:09;;;;;;;15.20;12.23;;;12.30;39.20;;;;;;5016480;28;20475;-46
2022/03/03 11:47:38;;;;;;;14.30;11.20;;;12.30;39.50;;;;;;5016073;28;20484;-46
2022/03/03 11:50:16;;;;;;;14.50;11.50;;;12.30;40.30;;;;;;5001484;28;20497;-46
2022/03/03 11:53:05;;;;;;;16.20;11.77;;;12.30;40.50;;;;;;5017361;28;20887;-46
2022/03/03 11:55:43;;;;;;;16.37;11.47;;;12.30;40.20;;;;;;5005940;28;20463;-46
2022/03/03 11:58:11;;;;;;;14.07;11.63;;;12.30;39.60;;;;;;5016339;28;20459;-46
2022/03/03 12:00:47;;;;;;;19.20;11.87;;;12.40;39.90;;;;;;5017900;28;20559;-46
2022/03/03 12:03:17;;;;;;;14.43;11.53;;;12.40;39.40;;;;;;5021946;28;20474;-47
2022/03/03 12:05:48;;;;;;;12.20;10.70;;;12.50;39.20;;;;;;5016784;28;20499;-46
2022/03/03 12:08:18;;;;;;;13.43;10.83;;;12.50;39.10;;;;;;5020769;28;20701;-46
2022/03/03 12:11:09;;;;;;;12.47;11.10;;;12.50;38.00;;;;;;5035253;28;20570;-46
2022/03/03 12:13:38;;;;;;;12.60;10.67;;;12.50;37.70;;;;;;5023409;28;20495;-46
2022/03/03 12:16:20;;;;;;;13.40;10.97;;;12.60;39.10;;;;;;5015608;28;20464;-47
2022/03/03 12:19:08;;;;;;;16.03;11.17;;;12.50;37.40;;;;;;5020388;28;20542;-46
2022/03/03 12:21:42;;;;;;;14.17;12.07;;;12.40;38.30;;;;;;5017747;28;20547;-46
2022/03/03 12:24:12;;;;;;;14.97;10.47;;;12.30;38.30;;;;;;5014111;28;20467;-46
2022/03/03 12:26:58;;;;;;;14.23;10.40;;;12.30;37.80;;;;;;5017705;28;20555;-46
2022/03/03 12:29:30;;;;;;;14.70;11.30;;;12.20;37.70;;;;;;5015929;28;20558;-46
2022/03/03 12:31:58;;;;;;;16.03;10.93;;;12.10;37.80;;;;;;5003870;28;20474;-46
2022/03/03 12:34:42;;;;;;;16.67;12.43;;;12.10;38.40;;;;;;5014950;28;21012;-46
2022/03/03 12:37:10;;;;;;;13.27;10.70;;;12.20;38.60;;;;;;5005685;28;20554;-46
2022/03/03 12:39:36;;;;;;;16.03;9.97;;;12.20;38.90;;;;;;5018378;28;20538;-46
2022/03/03 12:42:03;;;;;;;14.30;11.20;;;12.30;39.00;;;;;;5032960;28;20460;-47
2022/03/03 12:44:34;;;;;;;9.67;8.37;;;12.30;38.30;;;;;;5019639;28;20619;-46
2022/03/03 12:47:03;;;;;;;13.10;8.33;;;12.40;36.90;;;;;;5018046;28;20486;-46